Forestville, Pennsylvania
Current Conditions -  °F | °C
As of 6:15 PM on Thursday 27 Nov 2014 (Local Time) from KFKL Reporting Station
Overcast Overcast  
Wind Chill: 18°   Ceiling: 2300
Heat Index: 27°   Visibility: 6mi
Dew Point: 21°   Wind: 8mph
Humidity: 80%   Direction: 260°W
Pressure: 30.12"   Gusts: NA
Location:  41.1°N, 80°W
Report Text: KFKL 272315Z AUTO 26007KT 6SM SCT017 OVC023 M03/M06 A3012 RMK AO1
Loading
Personal Weather Stations






























Interactive Weather Map New forecast layout! Learn more

10-Day Weather Forecast

Advertisements
Track Severe Weather on mobile